createdAt,value
2023-05-08T00:02:06.813Z,13.38
2023-05-08T00:04:35.064Z,13.37
2023-05-08T00:07:03.053Z,13.37
2023-05-08T00:09:30.934Z,13.37
2023-05-08T00:11:58.832Z,13.36
2023-05-08T00:14:26.785Z,13.36
2023-05-08T00:16:54.693Z,13.37
2023-05-08T00:19:22.657Z,13.39
2023-05-08T00:21:50.610Z,13.40
2023-05-08T00:24:18.510Z,13.40
2023-05-08T00:26:47.065Z,13.38
2023-05-08T00:29:14.928Z,13.39
2023-05-08T00:31:42.879Z,13.40
2023-05-08T00:34:10.792Z,13.41
2023-05-08T00:36:38.771Z,13.43
2023-05-08T00:39:06.622Z,13.42
2023-05-08T00:41:34.516Z,13.39
2023-05-08T00:44:02.424Z,13.40
2023-05-08T00:46:30.413Z,13.43
2023-05-08T00:48:58.481Z,13.43
2023-05-08T00:51:26.520Z,13.43
2023-05-08T00:53:54.713Z,13.45
2023-05-08T00:56:23.886Z,13.43
2023-05-08T00:58:52.538Z,13.45
2023-05-08T01:01:20.687Z,13.48
2023-05-08T01:03:49.199Z,13.49
2023-05-08T01:06:17.518Z,13.50
2023-05-08T01:08:46.898Z,13.51
2023-05-08T01:11:27.511Z,13.51
2023-05-08T01:14:09.085Z,13.53
2023-05-08T01:16:43.130Z,13.54
2023-05-08T01:19:32.661Z,13.56
2023-05-08T01:22:38.745Z,13.57
2023-05-08T01:25:18.545Z,13.56
2023-05-08T01:28:04.829Z,13.56
2023-05-08T01:30:46.644Z,13.57
2023-05-08T01:33:58.021Z,13.58
2023-05-08T01:36:28.929Z,13.60
2023-05-08T01:39:23.949Z,13.62
2023-05-08T01:42:04.320Z,13.62
2023-05-08T01:44:57.798Z,13.63
2023-05-08T01:47:32.531Z,13.65
2023-05-08T01:50:08.638Z,13.65
2023-05-08T01:52:42.789Z,13.66
2023-05-08T01:55:15.342Z,13.65
2023-05-08T01:57:49.484Z,13.66
2023-05-08T02:00:20.625Z,13.68
2023-05-08T02:02:50.941Z,13.68
2023-05-08T02:05:22.400Z,13.70
2023-05-08T02:07:51.807Z,13.71
2023-05-08T02:10:21.956Z,13.71
2023-05-08T02:12:51.235Z,13.69
2023-05-08T02:15:20.563Z,13.70
2023-05-08T02:17:52.036Z,13.72
2023-05-08T02:20:22.744Z,13.72
2023-05-08T02:22:52.933Z,13.72
2023-05-08T02:25:22.112Z,13.74
2023-05-08T02:27:51.976Z,13.74
2023-05-08T02:30:21.401Z,13.75
2023-05-08T02:32:50.845Z,13.73
2023-05-08T02:35:20.696Z,13.75
2023-05-08T02:37:53.913Z,13.73
2023-05-08T02:40:25.786Z,13.73
2023-05-08T02:42:53.792Z,13.74
2023-05-08T02:45:21.931Z,13.75
2023-05-08T02:48:00.334Z,13.76
2023-05-08T02:50:37.184Z,13.77
2023-05-08T02:53:09.693Z,13.76
2023-05-08T02:55:45.300Z,13.75
2023-05-08T02:58:21.884Z,13.74
2023-05-08T03:01:01.526Z,13.75
2023-05-08T03:03:38.926Z,13.75
2023-05-08T03:06:12.686Z,13.76
2023-05-08T03:08:43.452Z,13.76
2023-05-08T03:11:17.190Z,13.76
2023-05-08T03:13:48.123Z,13.77
2023-05-08T03:16:23.516Z,13.77
2023-05-08T03:18:59.609Z,13.78
2023-05-08T03:21:30.668Z,13.79
2023-05-08T03:24:01.159Z,13.76
2023-05-08T03:26:30.084Z,13.80
2023-05-08T03:28:58.199Z,13.78
2023-05-08T03:31:28.257Z,13.75
2023-05-08T03:33:57.701Z,13.75
2023-05-08T03:36:28.177Z,13.76
2023-05-08T03:38:56.395Z,13.77
2023-05-08T03:41:24.646Z,13.78
2023-05-08T03:43:52.668Z,13.79
2023-05-08T03:46:21.764Z,13.78
2023-05-08T03:48:50.688Z,13.75
2023-05-08T03:51:19.215Z,13.75
2023-05-08T03:53:47.233Z,13.76
2023-05-08T03:56:15.101Z,13.77
2023-05-08T03:59:10.520Z,13.78
2023-05-08T04:01:51.345Z,13.78
2023-05-08T04:04:25.728Z,13.79
2023-05-08T04:07:32.131Z,13.79
2023-05-08T04:10:25.742Z,13.80
2023-05-08T04:13:13.748Z,13.80
2023-05-08T04:15:59.332Z,13.80
2023-05-08T04:18:31.531Z,13.81
2023-05-08T04:21:00.867Z,13.78
2023-05-08T04:23:31.235Z,13.79
2023-05-08T04:26:01.237Z,13.77
2023-05-08T04:28:29.548Z,13.77
2023-05-08T04:30:59.647Z,13.78
2023-05-08T04:33:27.874Z,13.78
2023-05-08T04:35:56.068Z,13.76
2023-05-08T04:38:24.006Z,13.75
2023-05-08T04:40:51.867Z,13.78
2023-05-08T04:43:19.796Z,13.79
2023-05-08T04:45:47.851Z,13.76
2023-05-08T04:48:15.834Z,13.78
2023-05-08T04:50:43.839Z,13.79
2023-05-08T04:53:11.883Z,13.81
2023-05-08T04:55:39.859Z,13.82
2023-05-08T04:58:07.815Z,13.82
2023-05-08T05:00:36.899Z,13.84
2023-05-08T05:03:04.952Z,13.86
2023-05-08T05:05:32.897Z,13.87
2023-05-08T05:08:00.881Z,13.88
2023-05-08T05:10:28.756Z,13.90
2023-05-08T05:12:56.932Z,13.92
2023-05-08T05:15:24.901Z,13.94
2023-05-08T05:17:53.040Z,13.95
2023-05-08T05:20:20.977Z,13.97
2023-05-08T05:22:48.931Z,13.98
2023-05-08T05:25:16.837Z,13.99
2023-05-08T05:27:44.746Z,14.01
2023-05-08T05:30:13.971Z,14.03
2023-05-08T05:32:42.110Z,14.04
2023-05-08T05:35:11.337Z,14.07
2023-05-08T05:37:39.524Z,14.07
2023-05-08T05:40:08.239Z,14.10
2023-05-08T05:42:36.173Z,14.10
2023-05-08T05:45:04.185Z,14.09
2023-05-08T05:47:32.138Z,14.13
2023-05-08T05:50:00.229Z,14.13
2023-05-08T05:52:28.208Z,14.14
2023-05-08T05:54:56.235Z,14.14
2023-05-08T05:57:24.100Z,14.17
2023-05-08T05:59:54.193Z,14.19
2023-05-08T06:02:22.894Z,14.19
2023-05-08T06:04:53.215Z,14.20
2023-05-08T06:07:22.471Z,14.21
2023-05-08T06:09:52.357Z,14.23
2023-05-08T06:12:20.822Z,14.25
2023-05-08T06:14:48.983Z,14.27
2023-05-08T06:17:18.245Z,14.30
2023-05-08T06:19:51.472Z,14.35
2023-05-08T06:22:19.757Z,14.40
2023-05-08T06:24:48.468Z,14.42
2023-05-08T06:27:16.506Z,14.41
2023-05-08T06:29:44.410Z,14.45
2023-05-08T06:32:12.305Z,14.47
2023-05-08T06:34:40.217Z,14.49
2023-05-08T06:37:08.149Z,14.51
2023-05-08T06:39:36.051Z,14.47
2023-05-08T06:42:04.823Z,14.51
2023-05-08T06:44:36.768Z,14.53
2023-05-08T06:47:04.845Z,14.54
2023-05-08T06:49:32.704Z,14.53
2023-05-08T06:52:00.606Z,14.50
2023-05-08T06:54:28.571Z,14.47
2023-05-08T06:56:56.640Z,14.50
2023-05-08T06:59:27.479Z,14.50
2023-05-08T07:01:55.420Z,14.53
2023-05-08T07:04:23.363Z,14.49
2023-05-08T07:06:51.285Z,14.51
2023-05-08T07:09:21.893Z,14.53
2023-05-08T07:11:49.942Z,14.51
2023-05-08T07:14:17.931Z,14.48
2023-05-08T07:16:45.799Z,14.47
2023-05-08T07:19:13.697Z,14.46
2023-05-08T07:21:41.731Z,14.42
2023-05-08T07:24:09.729Z,14.43
2023-05-08T07:26:37.732Z,14.45
2023-05-08T07:29:05.668Z,14.45
2023-05-08T07:31:33.596Z,14.46
2023-05-08T07:34:02.214Z,14.45
2023-05-08T07:36:30.298Z,14.47
2023-05-08T07:38:58.187Z,14.49
2023-05-08T07:41:27.907Z,14.54
2023-05-08T07:43:55.737Z,14.57
2023-05-08T07:46:23.950Z,14.61
2023-05-08T07:48:51.990Z,14.64
2023-05-08T07:51:19.954Z,14.69
2023-05-08T07:53:50.012Z,14.70
2023-05-08T07:56:17.912Z,14.72
2023-05-08T07:58:47.279Z,14.73
2023-05-08T08:01:15.179Z,14.74
2023-05-08T08:03:43.176Z,14.75
2023-05-08T08:06:11.296Z,14.75
2023-05-08T08:08:39.521Z,14.73
2023-05-08T08:11:08.577Z,14.73
2023-05-08T08:13:36.547Z,14.74
2023-05-08T08:16:05.594Z,14.77
2023-05-08T08:18:39.324Z,14.80
2023-05-08T08:21:08.776Z,14.84
2023-05-08T08:23:36.766Z,14.87
2023-05-08T08:26:04.735Z,14.89
2023-05-08T08:28:33.197Z,14.92
2023-05-08T08:31:01.421Z,15.00
2023-05-08T08:33:30.920Z,15.05
2023-05-08T08:35:58.830Z,15.14
2023-05-08T08:38:26.682Z,15.21
2023-05-08T08:40:55.573Z,15.25
2023-05-08T08:43:23.632Z,15.32
2023-05-08T08:45:51.677Z,15.39
2023-05-08T08:48:21.172Z,15.46
2023-05-08T08:50:52.559Z,15.44
2023-05-08T08:53:35.952Z,15.53
2023-05-08T08:56:05.150Z,15.56
2023-05-08T08:58:45.158Z,15.61
2023-05-08T09:01:18.294Z,15.66
2023-05-08T09:03:48.338Z,15.66
2023-05-08T09:06:18.617Z,15.71
2023-05-08T09:08:46.915Z,15.71
2023-05-08T09:11:14.894Z,15.74
2023-05-08T09:13:42.798Z,15.77
2023-05-08T09:16:10.782Z,15.80
2023-05-08T09:18:38.726Z,15.81
2023-05-08T09:21:07.968Z,15.84
2023-05-08T09:23:39.166Z,15.89
2023-05-08T09:26:07.261Z,15.93
2023-05-08T09:28:35.086Z,16.00
2023-05-08T09:31:03.863Z,16.13
2023-05-08T09:33:32.116Z,16.19
2023-05-08T09:36:00.041Z,16.27
2023-05-08T09:38:37.965Z,16.37
2023-05-08T09:41:16.857Z,16.50
2023-05-08T09:43:46.581Z,16.61
2023-05-08T09:46:23.891Z,16.73
2023-05-08T09:48:53.383Z,16.84
2023-05-08T09:51:22.064Z,16.93
2023-05-08T09:53:55.860Z,16.98
2023-05-08T09:56:33.380Z,17.01
2023-05-08T09:59:01.672Z,17.09
2023-05-08T10:01:31.411Z,17.10
2023-05-08T10:04:00.282Z,17.13
2023-05-08T10:06:29.932Z,17.10
2023-05-08T10:09:15.307Z,17.08
2023-05-08T10:11:53.935Z,17.07
2023-05-08T10:14:22.676Z,17.04
2023-05-08T10:16:55.926Z,17.02
2023-05-08T10:19:25.912Z,16.99
2023-05-08T10:21:56.573Z,16.95
2023-05-08T10:24:34.650Z,16.97
2023-05-08T10:27:19.068Z,17.00
2023-05-08T10:29:57.995Z,16.99
2023-05-08T10:32:27.194Z,17.02
2023-05-08T10:34:59.978Z,17.11
2023-05-08T10:37:31.172Z,17.15
2023-05-08T10:39:59.593Z,17.20
2023-05-08T10:42:29.183Z,17.25
2023-05-08T10:44:57.610Z,17.29
2023-05-08T10:47:45.050Z,17.33
2023-05-08T10:50:22.138Z,17.32
2023-05-08T10:53:04.625Z,17.23
2023-05-08T10:55:35.074Z,17.21
2023-05-08T10:58:17.590Z,17.17
2023-05-08T11:00:54.500Z,17.12
2023-05-08T11:03:32.133Z,17.09
2023-05-08T11:06:02.594Z,17.00
2023-05-08T11:08:31.971Z,16.88
2023-05-08T11:10:59.795Z,16.84
2023-05-08T11:13:34.653Z,16.73
2023-05-08T11:16:03.195Z,16.69
2023-05-08T11:18:45.639Z,16.70
2023-05-08T11:21:21.979Z,16.70
2023-05-08T11:23:59.132Z,16.72
2023-05-08T11:26:42.152Z,16.74
2023-05-08T11:29:19.067Z,16.71
2023-05-08T11:31:54.474Z,16.75
2023-05-08T11:34:44.235Z,16.76
2023-05-08T11:37:18.987Z,16.75
2023-05-08T11:39:47.860Z,16.82
2023-05-08T11:42:30.973Z,16.88
2023-05-08T11:45:10.306Z,17.00
2023-05-08T11:47:40.452Z,17.05
2023-05-08T11:50:10.642Z,17.10
2023-05-08T11:52:40.664Z,17.16
2023-05-08T11:55:10.980Z,17.21
2023-05-08T11:57:39.459Z,17.29
2023-05-08T12:00:12.562Z,17.44
2023-05-08T12:02:42.498Z,17.57
2023-05-08T12:05:11.937Z,17.62
2023-05-08T12:07:47.838Z,17.66
2023-05-08T12:10:17.526Z,17.61
2023-05-08T12:12:46.534Z,17.48
2023-05-08T12:15:16.409Z,17.34
2023-05-08T12:17:44.574Z,17.28
2023-05-08T12:20:17.220Z,17.18
2023-05-08T12:22:54.415Z,17.13
2023-05-08T12:25:22.279Z,17.05
2023-05-08T12:27:50.206Z,16.94
2023-05-08T12:30:18.743Z,16.91
2023-05-08T12:32:48.102Z,16.86
2023-05-08T12:35:17.076Z,16.73
2023-05-08T12:37:46.977Z,16.62
2023-05-08T12:40:28.193Z,16.49
2023-05-08T12:42:56.196Z,16.45
2023-05-08T12:45:26.824Z,16.41
2023-05-08T12:48:00.068Z,16.42
2023-05-08T12:50:28.261Z,16.40
2023-05-08T12:52:56.202Z,16.38
2023-05-08T12:55:24.419Z,16.37
2023-05-08T12:58:01.996Z,16.36
2023-05-08T13:00:40.922Z,16.38
2023-05-08T13:03:11.571Z,16.37
2023-05-08T13:05:43.689Z,16.40
2023-05-08T13:08:12.479Z,16.37
2023-05-08T13:10:49.602Z,16.36
2023-05-08T13:13:20.659Z,16.31
2023-05-08T13:15:49.617Z,16.29
2023-05-08T13:18:18.460Z,16.27
2023-05-08T13:20:47.577Z,16.21
2023-05-08T13:23:15.686Z,16.17
2023-05-08T13:25:43.551Z,16.16
2023-05-08T13:28:12.240Z,16.16
2023-05-08T13:30:40.566Z,16.17
2023-05-08T13:33:09.042Z,16.12
2023-05-08T13:35:37.587Z,16.13
2023-05-08T13:38:05.755Z,16.16
2023-05-08T13:40:33.759Z,16.11
2023-05-08T13:43:01.642Z,16.09
2023-05-08T13:45:29.620Z,16.07
2023-05-08T13:47:57.620Z,16.05
2023-05-08T13:50:25.789Z,16.06
2023-05-08T13:52:55.159Z,16.03
2023-05-08T13:55:24.188Z,16.02
2023-05-08T13:57:52.459Z,15.97
2023-05-08T14:00:20.885Z,15.93
2023-05-08T14:02:50.774Z,15.93
2023-05-08T14:05:20.494Z,15.91
2023-05-08T14:07:48.543Z,15.89
2023-05-08T14:10:18.442Z,15.88
2023-05-08T14:12:47.067Z,15.88
2023-05-08T14:15:15.310Z,15.89
2023-05-08T14:17:43.642Z,15.87
2023-05-08T14:20:12.291Z,15.87
2023-05-08T14:22:40.776Z,15.88
2023-05-08T14:25:09.646Z,15.86
2023-05-08T14:27:38.987Z,15.85
2023-05-08T14:30:07.814Z,15.82
2023-05-08T14:32:35.839Z,15.79
2023-05-08T14:35:03.885Z,15.75
2023-05-08T14:37:32.521Z,15.72
2023-05-08T14:40:00.854Z,15.71
2023-05-08T14:42:28.784Z,15.71
2023-05-08T14:44:57.384Z,15.73
2023-05-08T14:47:25.485Z,15.75
2023-05-08T14:49:55.001Z,15.76
2023-05-08T14:52:22.957Z,15.75
2023-05-08T14:54:54.652Z,15.77
2023-05-08T14:57:22.852Z,15.80
2023-05-08T14:59:54.909Z,15.77
2023-05-08T15:02:24.471Z,15.79
2023-05-08T15:04:52.510Z,15.80
2023-05-08T15:07:20.374Z,15.82
2023-05-08T15:09:49.166Z,15.82
2023-05-08T15:12:17.133Z,15.86
2023-05-08T15:14:44.998Z,15.90
2023-05-08T15:17:13.012Z,15.93
2023-05-08T15:19:40.947Z,16.01
2023-05-08T15:22:08.826Z,15.99
2023-05-08T15:24:36.890Z,15.96
2023-05-08T15:27:05.050Z,16.01
2023-05-08T15:29:32.971Z,16.06
2023-05-08T15:32:00.990Z,16.13
2023-05-08T15:34:29.549Z,16.21
2023-05-08T15:37:00.594Z,16.32
2023-05-08T15:39:28.537Z,16.46
2023-05-08T15:41:56.433Z,16.57
2023-05-08T15:44:26.545Z,16.67
2023-05-08T15:46:56.760Z,16.77
2023-05-08T15:49:28.442Z,16.79
2023-05-08T15:51:56.912Z,16.85
2023-05-08T15:54:24.828Z,16.92
2023-05-08T15:56:52.838Z,17.02
2023-05-08T15:59:20.850Z,17.13
2023-05-08T16:01:49.857Z,17.18
2023-05-08T16:04:19.674Z,17.26
2023-05-08T16:06:47.617Z,17.37
2023-05-08T16:09:15.587Z,17.52
2023-05-08T16:11:44.325Z,17.67
2023-05-08T16:14:12.192Z,17.77
2023-05-08T16:16:40.825Z,17.85
2023-05-08T16:19:08.717Z,17.89
2023-05-08T16:21:36.670Z,17.92
2023-05-08T16:24:05.006Z,17.92
2023-05-08T16:26:32.832Z,17.93
2023-05-08T16:29:00.731Z,17.95
2023-05-08T16:31:28.732Z,18.02
2023-05-08T16:33:56.793Z,18.05
2023-05-08T16:36:24.701Z,18.08
2023-05-08T16:38:52.662Z,18.08
2023-05-08T16:41:20.627Z,18.11
2023-05-08T16:43:48.643Z,18.12
2023-05-08T16:46:20.770Z,18.12
2023-05-08T16:48:54.751Z,18.11
2023-05-08T16:51:22.655Z,18.04
2023-05-08T16:53:50.612Z,17.97
2023-05-08T16:56:18.640Z,17.90
2023-05-08T16:58:46.647Z,17.83
2023-05-08T17:01:15.513Z,17.76
2023-05-08T17:03:43.534Z,17.70
2023-05-08T17:06:11.627Z,17.61
2023-05-08T17:08:39.556Z,17.63
2023-05-08T17:11:07.540Z,17.60
2023-05-08T17:13:35.448Z,17.61
2023-05-08T17:16:03.915Z,17.61
2023-05-08T17:18:31.847Z,17.61
2023-05-08T17:20:59.658Z,17.58
2023-05-08T17:23:27.553Z,17.58
2023-05-08T17:26:00.195Z,17.58
2023-05-08T17:28:28.299Z,17.57
2023-05-08T17:30:57.228Z,17.57
2023-05-08T17:33:25.368Z,17.54
2023-05-08T17:35:53.395Z,17.49
2023-05-08T17:38:21.844Z,17.47
2023-05-08T17:40:49.848Z,17.46
2023-05-08T17:43:18.919Z,17.44
2023-05-08T17:45:48.782Z,17.43
2023-05-08T17:48:16.827Z,17.43
2023-05-08T17:50:47.034Z,17.42
2023-05-08T17:53:15.048Z,17.42
2023-05-08T17:55:44.070Z,17.42
2023-05-08T17:58:11.926Z,17.44
2023-05-08T18:00:39.905Z,17.42
2023-05-08T18:03:07.923Z,17.42
2023-05-08T18:05:35.923Z,17.43
2023-05-08T18:08:03.946Z,17.46
2023-05-08T18:10:32.697Z,17.48
2023-05-08T18:13:00.951Z,17.51
2023-05-08T18:15:28.905Z,17.54
2023-05-08T18:17:56.969Z,17.58
2023-05-08T18:20:25.040Z,17.61
2023-05-08T18:22:53.049Z,17.52
2023-05-08T18:25:20.962Z,17.51
2023-05-08T18:27:51.303Z,17.45
2023-05-08T18:30:19.310Z,17.38
2023-05-08T18:32:47.295Z,17.34
2023-05-08T18:35:15.402Z,17.33
2023-05-08T18:37:43.349Z,17.32
2023-05-08T18:40:12.418Z,17.34
2023-05-08T18:42:40.435Z,17.30
2023-05-08T18:45:09.099Z,17.27
2023-05-08T18:47:37.126Z,17.25
2023-05-08T18:50:05.512Z,17.24
2023-05-08T18:52:33.416Z,17.24
2023-05-08T18:55:01.399Z,17.23
2023-05-08T18:57:29.372Z,17.23
2023-05-08T18:59:57.364Z,17.25
2023-05-08T19:02:29.285Z,17.30
2023-05-08T19:04:57.209Z,17.33
2023-05-08T19:07:25.285Z,17.32
2023-05-08T19:09:53.270Z,17.24
2023-05-08T19:12:21.130Z,17.19
2023-05-08T19:14:50.367Z,17.07
2023-05-08T19:17:18.378Z,16.92
2023-05-08T19:19:46.452Z,16.79
2023-05-08T19:22:14.712Z,16.73
2023-05-08T19:24:42.567Z,16.68
2023-05-08T19:27:10.692Z,16.68
2023-05-08T19:29:38.705Z,16.65
2023-05-08T19:32:06.932Z,16.63
2023-05-08T19:34:38.184Z,16.64
2023-05-08T19:37:07.465Z,16.60
2023-05-08T19:39:35.332Z,16.59
2023-05-08T19:42:04.044Z,16.60
2023-05-08T19:44:33.901Z,16.56
2023-05-08T19:47:03.805Z,16.49
2023-05-08T19:49:32.182Z,16.45
2023-05-08T19:52:00.145Z,16.45
2023-05-08T19:54:28.062Z,16.41
2023-05-08T19:56:56.246Z,16.32
2023-05-08T19:59:24.263Z,16.25
2023-05-08T20:01:52.472Z,16.21
2023-05-08T20:04:20.697Z,16.14
2023-05-08T20:06:48.607Z,16.08
2023-05-08T20:09:16.657Z,16.01
2023-05-08T20:11:44.592Z,15.93
2023-05-08T20:14:13.516Z,15.88
2023-05-08T20:16:43.063Z,15.86
2023-05-08T20:19:11.040Z,15.81
2023-05-08T20:21:39.343Z,15.74
2023-05-08T20:24:07.669Z,15.70
2023-05-08T20:26:35.557Z,15.67
2023-05-08T20:29:03.428Z,15.62
2023-05-08T20:31:32.237Z,15.60
2023-05-08T20:34:01.046Z,15.57
2023-05-08T20:36:29.280Z,15.54
2023-05-08T20:38:57.212Z,15.46
2023-05-08T20:41:25.150Z,15.41
2023-05-08T20:43:53.064Z,15.37
2023-05-08T20:46:20.981Z,15.34
2023-05-08T20:48:49.030Z,15.33
2023-05-08T20:51:17.013Z,15.31
2023-05-08T20:53:44.935Z,15.28
2023-05-08T20:56:13.567Z,15.26
2023-05-08T20:58:42.447Z,15.21
2023-05-08T21:01:10.456Z,15.14
2023-05-08T21:03:39.987Z,15.10
2023-05-08T21:06:08.078Z,15.06
2023-05-08T21:08:37.681Z,15.06
2023-05-08T21:11:05.883Z,15.03
2023-05-08T21:13:33.783Z,15.02
2023-05-08T21:16:01.698Z,15.01
2023-05-08T21:18:29.763Z,15.01
2023-05-08T21:20:57.658Z,14.99
2023-05-08T21:23:25.624Z,14.98
2023-05-08T21:25:54.522Z,14.98
2023-05-08T21:28:22.565Z,14.96
2023-05-08T21:30:50.411Z,14.95
2023-05-08T21:33:19.037Z,14.91
2023-05-08T21:35:46.987Z,14.90
2023-05-08T21:38:14.813Z,14.86
2023-05-08T21:40:42.792Z,14.85
2023-05-08T21:43:11.231Z,14.82
2023-05-08T21:45:39.328Z,14.84
2023-05-08T21:48:07.467Z,14.80
2023-05-08T21:50:35.396Z,14.82
2023-05-08T21:53:03.333Z,14.83
2023-05-08T21:55:32.500Z,14.84
2023-05-08T21:58:00.547Z,14.83
2023-05-08T22:00:28.605Z,14.83
2023-05-08T22:02:56.566Z,14.84
2023-05-08T22:05:25.774Z,14.82
2023-05-08T22:07:53.800Z,14.79
2023-05-08T22:10:22.909Z,14.79
2023-05-08T22:12:50.861Z,14.77
2023-05-08T22:15:28.904Z,14.75
2023-05-08T22:17:57.844Z,14.74
2023-05-08T22:20:25.908Z,14.73
2023-05-08T22:22:53.933Z,14.68
2023-05-08T22:25:23.013Z,14.65
2023-05-08T22:27:50.901Z,14.63
2023-05-08T22:30:18.925Z,14.63
2023-05-08T22:32:55.409Z,14.61
2023-05-08T22:35:28.910Z,14.60
2023-05-08T22:37:58.547Z,14.58
2023-05-08T22:40:27.294Z,14.58
2023-05-08T22:42:57.113Z,14.57
2023-05-08T22:45:25.201Z,14.57
2023-05-08T22:47:53.157Z,14.56
2023-05-08T22:50:21.326Z,14.54
2023-05-08T22:52:49.348Z,14.54
2023-05-08T22:55:17.538Z,14.55
2023-05-08T22:57:45.520Z,14.56
2023-05-08T23:00:13.956Z,14.56
2023-05-08T23:02:41.929Z,14.56
2023-05-08T23:05:10.383Z,14.58
2023-05-08T23:07:38.245Z,14.58
2023-05-08T23:10:06.429Z,14.58
2023-05-08T23:12:34.289Z,14.60
2023-05-08T23:15:02.449Z,14.61
2023-05-08T23:17:30.336Z,14.62
2023-05-08T23:19:58.251Z,14.62
2023-05-08T23:22:26.186Z,14.62
2023-05-08T23:24:54.212Z,14.62
2023-05-08T23:27:22.234Z,14.63
2023-05-08T23:29:50.208Z,14.64
2023-05-08T23:32:18.036Z,14.62
2023-05-08T23:34:46.103Z,14.62
2023-05-08T23:37:14.055Z,14.61
2023-05-08T23:39:42.552Z,14.63
2023-05-08T23:42:10.668Z,14.62
2023-05-08T23:44:38.612Z,14.61
2023-05-08T23:47:06.532Z,14.61
2023-05-08T23:49:34.441Z,14.61
2023-05-08T23:52:02.275Z,14.61
2023-05-08T23:54:30.148Z,14.62
2023-05-08T23:56:58.050Z,14.60
2023-05-08T23:59:25.992Z,14.60
